Time;durP1;ratioP1;P1;durP2;ratioP2;P2;SDS_P1;SDS_P2;PMS_P1;PMS_P2;Temp;Humidity;BMP_temperature;BMP_pressure;BME280_temperature;BME280_humidity;BME280_pressure;Samples;Min_cycle;Max_cycle;Signal;HPM_P1;HPM_P2
2022/09/27 00:01:47;;;;;;;22.48;20.13;;;14.40;81.50;;;;;;5029956;28;20399;-76
2022/09/27 00:04:14;;;;;;;22.00;19.15;;;14.50;81.10;;;;;;5030861;28;20033;-76
2022/09/27 00:06:40;;;;;;;21.27;18.88;;;14.50;81.00;;;;;;5031081;28;20045;-76
2022/09/27 00:09:06;;;;;;;26.08;19.20;;;14.40;81.10;;;;;;5060940;28;20033;-76
2022/09/27 00:11:37;;;;;;;22.55;19.10;;;14.30;81.40;;;;;;5011692;28;20034;-76
2022/09/27 00:14:04;;;;;;;24.17;20.23;;;14.20;81.90;;;;;;5031288;28;20037;-76
2022/09/27 00:16:31;;;;;;;21.83;19.50;;;14.10;81.80;;;;;;5024185;28;20090;-76
2022/09/27 00:19:02;;;;;;;24.10;19.70;;;14.20;81.90;;;;;;5029837;28;20044;-76
2022/09/27 00:21:29;;;;;;;30.50;19.90;;;14.10;81.80;;;;;;5030567;28;20033;-76
2022/09/27 00:23:55;;;;;;;24.92;20.27;;;14.10;82.20;;;;;;5028948;28;20781;-76
2022/09/27 00:26:21;;;;;;;21.08;18.25;;;14.20;81.70;;;;;;5045569;28;20030;-76
2022/09/27 00:28:48;;;;;;;28.15;19.33;;;14.20;81.40;;;;;;5029611;28;20033;-76
2022/09/27 00:31:28;;;;;;;25.25;19.88;;;14.20;81.50;;;;;;5026574;28;20050;-78
2022/09/27 00:33:56;;;;;;;24.42;18.70;;;14.20;81.60;;;;;;5026711;28;20030;-78
2022/09/27 00:36:22;;;;;;;21.55;19.15;;;14.10;81.80;;;;;;5061404;28;20040;-78
2022/09/27 00:38:48;;;;;;;21.48;19.35;;;14.00;82.10;;;;;;5059125;28;20033;-78
2022/09/27 00:41:29;;;;;;;24.25;20.20;;;13.90;82.50;;;;;;5028013;28;20033;-78
2022/09/27 00:44:00;;;;;;;22.13;18.98;;;13.90;82.60;;;;;;5031380;28;20037;-78
2022/09/27 00:46:40;;;;;;;23.10;18.80;;;13.90;82.40;;;;;;5021237;28;20042;-78
2022/09/27 00:49:18;;;;;;;23.08;20.35;;;14.00;81.80;;;;;;5029093;28;20483;-78
2022/09/27 00:51:45;;;;;;;21.02;18.88;;;14.10;81.90;;;;;;5062475;28;20788;-78
2022/09/27 00:54:12;;;;;;;21.63;18.00;;;14.10;81.40;;;;;;5016602;28;20030;-78
2022/09/27 00:56:38;;;;;;;23.27;18.48;;;14.10;81.40;;;;;;5025213;28;20040;-78
2022/09/27 00:59:27;;;;;;;24.45;18.52;;;14.10;81.40;;;;;;5030859;28;20374;-78
2022/09/27 01:01:53;;;;;;;22.67;18.52;;;14.00;81.60;;;;;;5023074;28;20038;-78
2022/09/27 01:04:22;;;;;;;23.95;18.05;;;13.90;81.80;;;;;;5029165;28;20387;-78
2022/09/27 01:06:49;;;;;;;23.77;18.30;;;13.90;82.00;;;;;;5027937;28;20025;-79
2022/09/27 01:09:15;;;;;;;22.55;18.55;;;13.90;81.90;;;;;;5024102;28;20033;-78
2022/09/27 01:12:03;;;;;;;25.98;19.50;;;13.80;82.00;;;;;;5026641;28;20394;-78
2022/09/27 01:14:47;;;;;;;22.90;18.13;;;13.70;82.30;;;;;;5058155;28;20025;-78
2022/09/27 01:17:38;;;;;;;20.98;17.50;;;13.70;82.40;;;;;;5021881;28;20036;-78
2022/09/27 01:20:25;;;;;;;21.95;17.65;;;13.80;82.00;;;;;;5021239;28;20038;-78
2022/09/27 01:22:59;;;;;;;28.35;18.52;;;13.80;81.90;;;;;;5021228;28;20039;-78
2022/09/27 01:26:08;;;;;;;21.90;17.20;;;13.70;82.20;;;;;;5061131;28;20404;-78
2022/09/27 01:28:45;;;;;;;18.95;16.95;;;13.70;82.50;;;;;;5038090;28;20033;-78
2022/09/27 01:31:30;;;;;;;21.23;16.73;;;13.60;82.60;;;;;;5040919;28;20030;-78
2022/09/27 01:34:11;;;;;;;18.73;16.83;;;13.70;82.40;;;;;;5030699;28;20037;-78
2022/09/27 01:37:07;;;;;;;22.40;18.50;;;13.70;82.20;;;;;;5026168;28;20382;-78
2022/09/27 01:39:36;;;;;;;26.02;17.65;;;13.70;82.20;;;;;;5029235;28;20025;-78
2022/09/27 01:42:40;;;;;;;19.55;17.02;;;13.80;81.90;;;;;;5029601;28;20032;-78
2022/09/27 01:45:13;;;;;;;21.77;16.70;;;13.60;82.60;;;;;;5053861;28;20045;-78
2022/09/27 01:47:51;;;;;;;22.38;18.00;;;13.60;82.70;;;;;;5039823;28;20029;-78
2022/09/27 01:50:26;;;;;;;23.83;17.90;;;13.60;82.70;;;;;;5024735;28;20053;-78
2022/09/27 01:53:02;;;;;;;23.52;17.27;;;13.50;82.80;;;;;;5027941;28;20037;-78
2022/09/27 01:55:30;;;;;;;19.92;16.85;;;13.40;83.40;;;;;;5045220;28;20486;-78
2022/09/27 01:58:27;;;;;;;18.50;16.63;;;13.40;83.30;;;;;;5027403;28;20029;-78
2022/09/27 02:00:53;;;;;;;20.98;16.85;;;13.50;83.30;;;;;;5008398;28;20037;-78
2022/09/27 02:03:21;;;;;;;23.75;17.70;;;13.50;83.00;;;;;;5008470;28;20469;-78
2022/09/27 02:05:56;;;;;;;21.48;17.30;;;13.40;83.20;;;;;;5010037;28;20037;-78
2022/09/27 02:08:41;;;;;;;25.48;17.17;;;13.40;83.30;;;;;;5008655;28;20056;-78
2022/09/27 02:11:11;;;;;;;23.73;17.55;;;13.40;83.60;;;;;;5022606;28;20054;-78
2022/09/27 02:13:52;;;;;;;20.60;17.50;;;13.50;83.00;;;;;;5027518;28;20092;-78
2022/09/27 02:16:20;;;;;;;19.80;17.08;;;13.50;82.60;;;;;;5005126;28;20041;-78
2022/09/27 02:18:54;;;;;;;18.35;16.83;;;13.50;82.90;;;;;;4997517;28;20038;-78
2022/09/27 02:21:20;;;;;;;27.63;17.83;;;13.50;83.20;;;;;;5021571;28;20041;-78
2022/09/27 02:23:52;;;;;;;22.42;17.95;;;13.50;82.70;;;;;;4975461;28;20050;-78
2022/09/27 02:26:21;;;;;;;22.33;16.58;;;13.40;83.10;;;;;;5006018;28;20125;-78
2022/09/27 02:28:52;;;;;;;21.10;18.20;;;13.30;83.80;;;;;;5011019;28;20041;-78
2022/09/27 02:31:19;;;;;;;26.92;18.42;;;13.20;84.00;;;;;;5006376;28;20045;-78
2022/09/27 02:33:51;;;;;;;19.30;17.40;;;13.20;84.00;;;;;;5023469;28;20511;-78
2022/09/27 02:36:17;;;;;;;22.27;17.70;;;13.20;84.40;;;;;;5022478;28;20034;-78
2022/09/27 02:38:43;;;;;;;18.63;16.73;;;13.10;84.60;;;;;;5038021;28;20390;-78
2022/09/27 02:41:14;;;;;;;20.90;17.35;;;13.10;84.40;;;;;;5024844;28;20022;-78
2022/09/27 02:43:40;;;;;;;20.10;17.23;;;13.20;84.20;;;;;;5032523;28;20060;-78
2022/09/27 02:46:11;;;;;;;19.88;17.83;;;13.20;84.40;;;;;;5018912;28;20379;-78
2022/09/27 02:48:45;;;;;;;19.80;16.88;;;13.10;84.80;;;;;;5026495;28;20154;-78
2022/09/27 02:51:27;;;;;;;19.48;17.10;;;13.10;84.60;;;;;;5030314;28;20087;-78
2022/09/27 02:54:09;;;;;;;21.85;17.20;;;13.10;84.60;;;;;;5032168;28;20529;-78
2022/09/27 02:56:56;;;;;;;21.23;17.33;;;13.10;84.70;;;;;;5024976;28;20030;-78
2022/09/27 02:59:31;;;;;;;25.38;19.05;;;13.00;85.10;;;;;;5034310;28;20046;-78
2022/09/27 03:02:05;;;;;;;22.08;19.08;;;13.00;85.20;;;;;;5025588;28;20041;-78
2022/09/27 03:04:38;;;;;;;23.30;20.40;;;13.00;84.90;;;;;;5047885;28;20053;-78
2022/09/27 03:07:04;;;;;;;21.60;19.40;;;12.90;85.30;;;;;;5032072;28;20030;-78
2022/09/27 03:09:57;;;;;;;30.10;19.42;;;12.90;85.50;;;;;;5029742;28;20038;-78
2022/09/27 03:12:26;;;;;;;22.08;18.00;;;13.00;85.90;;;;;;5031190;28;20045;-78
2022/09/27 03:14:59;;;;;;;22.38;18.73;;;13.10;85.20;;;;;;5045523;28;20505;-78
2022/09/27 03:17:25;;;;;;;23.63;18.60;;;13.10;85.30;;;;;;5029371;28;20046;-78
2022/09/27 03:19:51;;;;;;;20.60;18.80;;;13.10;85.10;;;;;;5045296;28;20037;-78
2022/09/27 03:22:17;;;;;;;20.80;18.85;;;13.10;85.10;;;;;;5032187;28;20052;-78
2022/09/27 03:24:44;;;;;;;19.90;17.90;;;13.10;85.50;;;;;;5030902;28;20049;-78
2022/09/27 03:27:10;;;;;;;21.58;19.73;;;13.10;85.20;;;;;;5035574;28;20026;-78
2022/09/27 03:29:36;;;;;;;21.73;18.27;;;13.20;84.70;;;;;;5023210;28;20041;-78
2022/09/27 03:32:03;;;;;;;18.58;16.88;;;13.30;84.70;;;;;;5021357;28;20033;-78
2022/09/27 03:34:29;;;;;;;19.73;17.23;;;13.30;84.60;;;;;;5029143;28;20033;-78
2022/09/27 03:36:55;;;;;;;19.33;17.27;;;13.30;84.90;;;;;;5031148;28;20030;-78
2022/09/27 03:39:21;;;;;;;20.40;18.08;;;13.30;84.60;;;;;;5030544;28;20038;-78
2022/09/27 03:41:47;;;;;;;18.92;17.17;;;13.30;84.70;;;;;;5026310;28;20049;-74
2022/09/27 03:44:13;;;;;;;20.33;18.42;;;13.20;84.90;;;;;;5024139;28;20041;-76
2022/09/27 03:46:39;;;;;;;19.58;17.45;;;13.10;85.30;;;;;;5031108;28;20060;-76
2022/09/27 03:49:05;;;;;;;22.08;16.70;;;13.10;85.40;;;;;;5027292;28;20060;-76
2022/09/27 03:51:32;;;;;;;20.20;17.58;;;13.10;85.30;;;;;;5013206;28;20505;-76
2022/09/27 03:53:58;;;;;;;22.75;17.95;;;13.20;85.30;;;;;;5014359;28;20052;-77
2022/09/27 03:56:24;;;;;;;19.50;17.00;;;13.20;85.00;;;;;;5029685;28;20496;-77
2022/09/27 03:58:50;;;;;;;20.38;17.98;;;13.30;84.60;;;;;;5022286;28;20045;-77
2022/09/27 04:01:16;;;;;;;22.42;16.77;;;13.30;84.60;;;;;;5025576;28;20510;-77
2022/09/27 04:03:42;;;;;;;23.75;16.80;;;13.40;84.50;;;;;;5010539;28;20049;-77
2022/09/27 04:06:08;;;;;;;19.08;17.30;;;13.30;84.90;;;;;;5034982;28;20022;-79
2022/09/27 04:08:35;;;;;;;18.73;16.85;;;13.30;84.80;;;;;;5028239;28;20385;-77
2022/09/27 04:11:02;;;;;;;22.33;17.50;;;13.30;84.90;;;;;;5029704;28;20025;-77
2022/09/27 04:13:28;;;;;;;19.50;17.08;;;13.30;85.10;;;;;;5029835;28;20421;-77
2022/09/27 04:15:54;;;;;;;18.58;16.85;;;13.40;85.80;;;;;;5029651;28;20030;-77
2022/09/27 04:18:20;;;;;;;19.40;17.48;;;13.40;84.80;;;;;;5013575;28;20141;-77
2022/09/27 04:20:47;;;;;;;25.88;17.77;;;13.40;84.70;;;;;;5032121;28;20490;-77
2022/09/27 04:23:13;;;;;;;18.88;16.90;;;13.40;84.50;;;;;;5030660;28;20041;-77
2022/09/27 04:25:39;;;;;;;19.13;17.25;;;13.50;84.40;;;;;;5032018;28;20026;-77
2022/09/27 04:28:05;;;;;;;19.40;16.65;;;13.60;84.70;;;;;;5031884;28;20029;-77
2022/09/27 04:30:31;;;;;;;19.08;17.23;;;13.60;84.80;;;;;;5030239;28;20033;-77
2022/09/27 04:32:57;;;;;;;18.58;16.63;;;13.50;85.10;;;;;;5063513;28;20029;-77
2022/09/27 04:38:08;;;;;;;19.17;17.23;;;13.70;84.80;;;;;;5032825;28;20045;-77
2022/09/27 04:40:34;;;;;;;20.55;18.25;;;13.70;84.50;;;;;;5063127;28;20462;-77
2022/09/27 04:43:02;;;;;;;19.08;17.40;;;13.60;84.50;;;;;;5027590;28;20041;-77
2022/09/27 04:45:29;;;;;;;21.52;17.85;;;13.70;84.40;;;;;;5045562;28;20457;-77
2022/09/27 04:47:55;;;;;;;23.75;18.35;;;13.60;84.90;;;;;;5042513;28;20037;-77
2022/09/27 04:50:21;;;;;;;21.30;18.02;;;13.60;84.60;;;;;;5029947;28;20033;-77
2022/09/27 04:52:51;;;;;;;20.25;17.65;;;13.60;84.30;;;;;;5029033;28;20041;-77
2022/09/27 04:55:17;;;;;;;19.95;18.00;;;13.60;84.60;;;;;;5030114;28;20053;-77
2022/09/27 04:57:43;;;;;;;21.17;18.27;;;13.50;84.80;;;;;;5030067;28;20033;-77
2022/09/27 05:00:10;;;;;;;20.02;18.45;;;13.40;85.30;;;;;;5062012;28;20029;-77
2022/09/27 05:02:36;;;;;;;23.13;17.02;;;13.40;85.60;;;;;;5062928;28;20045;-77
2022/09/27 05:05:02;;;;;;;19.88;17.95;;;13.40;85.70;;;;;;5030503;28;20042;-77
2022/09/27 05:07:28;;;;;;;20.73;18.30;;;13.40;85.60;;;;;;5046077;28;20042;-77
2022/09/27 05:09:55;;;;;;;19.92;18.30;;;13.40;85.80;;;;;;5062939;28;20048;-77
2022/09/27 05:12:21;;;;;;;20.42;18.77;;;13.40;86.10;;;;;;5028649;28;20056;-77
2022/09/27 05:14:47;;;;;;;21.95;19.75;;;13.30;86.60;;;;;;5028895;28;20038;-77
2022/09/27 05:17:13;;;;;;;21.60;19.58;;;13.30;86.60;;;;;;5029003;28;20092;-77
2022/09/27 05:19:40;;;;;;;22.67;20.65;;;13.30;86.40;;;;;;5029867;28;20038;-77
2022/09/27 05:22:06;;;;;;;22.98;20.83;;;13.40;86.30;;;;;;5029599;28;20374;-77
2022/09/27 05:24:32;;;;;;;20.77;18.92;;;13.50;85.80;;;;;;5029657;28;20041;-77
2022/09/27 05:26:59;;;;;;;21.92;19.80;;;13.50;85.80;;;;;;5029016;28;20021;-77
2022/09/27 05:29:25;;;;;;;21.25;19.15;;;13.50;86.00;;;;;;5029282;28;20036;-77
2022/09/27 05:31:51;;;;;;;20.25;18.23;;;13.50;85.60;;;;;;5045224;28;20029;-77
2022/09/27 05:34:23;;;;;;;20.67;18.63;;;13.70;85.10;;;;;;5028285;28;20299;-77
2022/09/27 05:36:49;;;;;;;22.05;18.75;;;13.70;84.60;;;;;;5008803;28;20118;-77
2022/09/27 05:39:16;;;;;;;19.33;17.23;;;13.70;84.50;;;;;;5009643;28;20052;-77
2022/09/27 05:41:42;;;;;;;20.27;18.05;;;13.70;85.10;;;;;;5020878;28;20029;-77
2022/09/27 05:44:08;;;;;;;20.17;18.25;;;13.70;84.90;;;;;;5029729;28;20042;-77
2022/09/27 05:46:34;;;;;;;20.50;17.55;;;13.60;85.20;;;;;;5028679;28;20468;-77
2022/09/27 05:49:07;;;;;;;19.83;18.02;;;13.60;85.40;;;;;;5030140;28;20463;-77
2022/09/27 05:51:33;;;;;;;20.75;18.95;;;13.60;85.20;;;;;;5029110;28;20041;-77
2022/09/27 05:53:59;;;;;;;20.60;18.35;;;13.60;85.60;;;;;;5028612;28;20033;-77
2022/09/27 05:56:25;;;;;;;20.02;18.13;;;13.60;85.40;;;;;;5028717;28;20030;-77
2022/09/27 05:58:51;;;;;;;19.52;17.52;;;13.60;85.20;;;;;;5029020;28;20115;-77
2022/09/27 06:01:17;;;;;;;24.70;18.23;;;13.60;84.90;;;;;;5029029;28;20038;-77
2022/09/27 06:03:46;;;;;;;19.58;17.70;;;13.60;85.00;;;;;;5028927;28;20038;-75
2022/09/27 06:06:12;;;;;;;18.48;16.70;;;13.70;84.70;;;;;;5024466;28;20040;-75
2022/09/27 06:08:38;;;;;;;19.50;17.60;;;13.70;84.60;;;;;;5016920;28;20034;-74
2022/09/27 06:11:08;;;;;;;19.02;16.25;;;13.70;84.80;;;;;;5023322;28;20033;-77
2022/09/27 06:13:38;;;;;;;19.27;17.52;;;13.70;84.60;;;;;;5028391;28;20038;-74
2022/09/27 06:16:04;;;;;;;19.48;17.58;;;13.70;84.60;;;;;;5054281;28;20228;-74
2022/09/27 06:18:31;;;;;;;19.55;17.85;;;13.70;84.70;;;;;;5014640;28;20038;-76
2022/09/27 06:21:00;;;;;;;20.63;17.10;;;13.60;85.20;;;;;;5032353;28;20044;-76
2022/09/27 06:23:26;;;;;;;20.42;18.33;;;13.60;86.60;;;;;;5031873;28;20040;-76
2022/09/27 06:25:53;;;;;;;24.45;18.05;;;13.60;86.00;;;;;;5032736;28;20029;-77
2022/09/27 06:28:19;;;;;;;20.50;18.40;;;13.50;86.50;;;;;;5031514;28;20041;-76
2022/09/27 06:30:49;;;;;;;20.70;18.42;;;13.50;86.30;;;;;;5043106;28;20033;-77
2022/09/27 06:33:18;;;;;;;21.50;19.90;;;13.50;86.70;;;;;;5032001;28;20037;-76
2022/09/27 06:35:45;;;;;;;20.70;18.15;;;13.60;89.20;;;;;;5031206;28;20398;-77
2022/09/27 06:38:12;;;;;;;19.75;17.77;;;13.70;86.60;;;;;;5031971;28;20478;-77
2022/09/27 06:40:38;;;;;;;23.15;17.35;;;13.70;86.00;;;;;;5021947;28;20029;-77
2022/09/27 06:43:08;;;;;;;21.98;16.77;;;13.80;86.00;;;;;;5027883;28;20111;-78
2022/09/27 06:45:35;;;;;;;21.23;17.33;;;13.80;85.90;;;;;;5030063;28;20060;-77
2022/09/27 06:48:02;;;;;;;19.15;17.17;;;13.80;85.80;;;;;;5023489;28;20418;-74
2022/09/27 06:50:35;;;;;;;21.60;17.80;;;13.70;86.20;;;;;;5012674;28;20026;-74
2022/09/27 06:53:05;;;;;;;21.77;16.77;;;13.70;85.90;;;;;;5018637;28;20486;-74
2022/09/27 06:55:32;;;;;;;22.33;16.85;;;13.80;85.90;;;;;;5016579;28;20414;-75
2022/09/27 07:00:46;;;;;;;24.17;17.45;;;13.90;86.00;;;;;;5028875;28;20025;-74
2022/09/27 07:03:13;;;;;;;23.20;20.17;;;13.90;85.90;;;;;;5031568;28;20045;-74
2022/09/27 07:05:42;;;;;;;27.85;25.30;;;14.00;86.10;;;;;;5026515;28;20033;-74
2022/09/27 07:08:10;;;;;;;29.65;27.00;;;14.20;85.80;;;;;;5015933;28;20045;-74
2022/09/27 07:10:37;;;;;;;29.08;26.42;;;14.20;84.60;;;;;;5032675;28;20044;-73
2022/09/27 07:13:07;;;;;;;26.42;24.42;;;14.30;83.90;;;;;;5031835;28;20463;-73
2022/09/27 07:15:37;;;;;;;25.58;22.85;;;14.30;84.00;;;;;;5024169;28;20034;-73
2022/09/27 07:18:04;;;;;;;27.08;24.38;;;14.30;84.10;;;;;;5011930;28;20402;-74
2022/09/27 07:20:30;;;;;;;23.63;21.65;;;14.30;84.10;;;;;;5011909;28;20049;-73
2022/09/27 07:22:57;;;;;;;23.20;20.98;;;14.30;83.80;;;;;;5015257;28;20044;-73
2022/09/27 07:25:23;;;;;;;25.90;20.45;;;14.20;84.30;;;;;;5030297;28;20044;-73
2022/09/27 07:27:51;;;;;;;28.42;22.13;;;14.30;84.20;;;;;;5029984;28;20041;-73
2022/09/27 07:30:18;;;;;;;21.63;19.77;;;14.30;83.90;;;;;;5046439;28;20033;-73
2022/09/27 07:32:44;;;;;;;25.15;22.70;;;14.40;83.50;;;;;;5014653;28;20045;-74
2022/09/27 07:35:10;;;;;;;24.30;20.70;;;14.30;84.00;;;;;;5015586;28;20033;-73
2022/09/27 07:37:36;;;;;;;25.83;21.75;;;14.20;83.80;;;;;;5049049;28;20478;-74
2022/09/27 07:40:08;;;;;;;17.77;15.73;;;14.10;84.50;;;;;;5034824;28;20049;-83
2022/09/27 07:42:37;;;;;;;22.92;21.05;;;14.20;86.60;;;;;;5015496;28;20044;-73
2022/09/27 07:45:05;;;;;;;24.73;22.70;;;14.30;85.30;;;;;;5035788;28;20061;-73
2022/09/27 07:47:31;;;;;;;22.85;20.35;;;14.20;84.50;;;;;;5063890;28;20041;-73
2022/09/27 07:49:57;;;;;;;22.50;20.73;;;14.20;84.40;;;;;;5025934;28;20060;-73
2022/09/27 07:52:23;;;;;;;23.17;20.15;;;14.20;84.10;;;;;;5029670;28;20026;-73
2022/09/27 07:54:50;;;;;;;22.95;20.63;;;14.30;84.40;;;;;;5017417;28;20033;-73
2022/09/27 07:57:16;;;;;;;20.88;18.90;;;14.30;83.80;;;;;;5013950;28;20030;-73
2022/09/27 07:59:42;;;;;;;20.35;18.27;;;14.30;83.70;;;;;;5013008;28;20041;-72
2022/09/27 08:02:14;;;;;;;19.90;17.95;;;14.30;83.90;;;;;;5014521;28;20070;-73
2022/09/27 08:04:42;;;;;;;22.23;19.92;;;14.30;84.20;;;;;;5006383;28;20050;-76
2022/09/27 08:07:09;;;;;;;23.52;21.15;;;14.40;83.40;;;;;;5011796;28;20082;-75
2022/09/27 08:09:36;;;;;;;22.90;20.83;;;14.40;82.70;;;;;;5017201;28;20030;-74
2022/09/27 08:12:03;;;;;;;19.92;18.20;;;14.40;83.30;;;;;;5030436;28;20402;-75
2022/09/27 08:14:30;;;;;;;21.35;19.23;;;14.50;83.20;;;;;;5012266;28;20038;-75
2022/09/27 08:16:56;;;;;;;24.63;21.90;;;14.50;83.40;;;;;;5014907;28;20042;-79
2022/09/27 08:19:22;;;;;;;28.25;25.77;;;14.70;84.30;;;;;;5028987;28;20030;-79
2022/09/27 08:21:50;;;;;;;30.73;28.00;;;14.80;83.80;;;;;;5025887;28;20390;-79
2022/09/27 08:24:16;;;;;;;33.78;31.05;;;14.80;83.50;;;;;;5029914;28;20217;-80
2022/09/27 08:26:42;;;;;;;28.63;26.63;;;15.00;82.50;;;;;;5021665;28;20022;-77
2022/09/27 08:29:09;;;;;;;35.88;33.38;;;15.00;82.90;;;;;;5025859;28;20029;-79
2022/09/27 08:31:35;;;;;;;37.63;35.00;;;15.20;81.90;;;;;;5032082;28;20030;-80
2022/09/27 08:34:01;;;;;;;33.22;30.92;;;15.30;81.60;;;;;;5033163;28;20029;-76
2022/09/27 08:36:28;;;;;;;33.15;30.75;;;15.40;81.00;;;;;;5032875;28;20463;-76
2022/09/27 08:38:57;;;;;;;30.00;27.38;;;15.50;81.20;;;;;;5032204;28;20026;-76
2022/09/27 08:41:28;;;;;;;29.55;27.15;;;15.60;80.30;;;;;;5029235;28;20402;-79
2022/09/27 08:44:31;;;;;;;26.35;24.27;;;15.70;79.50;;;;;;5014244;28;20042;-77
2022/09/27 08:47:11;;;;;;;25.55;23.55;;;15.70;79.20;;;;;;5028523;28;20029;-75
2022/09/27 08:49:37;;;;;;;25.92;23.92;;;15.70;78.40;;;;;;5026437;28;20049;-74
2022/09/27 08:52:05;;;;;;;26.83;24.67;;;15.80;77.20;;;;;;5028508;28;20048;-75
2022/09/27 08:54:31;;;;;;;27.70;25.55;;;15.70;77.90;;;;;;5061500;28;20071;-75
2022/09/27 08:57:06;;;;;;;26.65;24.63;;;15.80;77.70;;;;;;5064844;28;20029;-75
2022/09/27 08:59:40;;;;;;;28.30;26.25;;;15.70;77.20;;;;;;5045949;28;20033;-75
2022/09/27 09:02:19;;;;;;;27.40;25.17;;;15.70;76.90;;;;;;5027448;28;20040;-75
2022/09/27 09:04:47;;;;;;;27.40;25.08;;;15.60;78.00;;;;;;5044192;28;20049;-74
2022/09/27 09:07:17;;;;;;;26.15;24.35;;;15.70;77.10;;;;;;5061679;28;20025;-74
2022/09/27 09:09:55;;;;;;;28.05;25.77;;;15.60;77.80;;;;;;5030661;28;20037;-82
2022/09/27 09:12:46;;;;;;;27.20;25.02;;;15.60;77.10;;;;;;5042954;28;20037;-79
2022/09/27 09:15:54;;;;;;;28.15;25.90;;;15.60;75.90;;;;;;5055506;28;20037;-73
2022/09/27 09:18:38;;;;;;;26.30;24.38;;;15.60;76.10;;;;;;5011164;28;20036;-74
2022/09/27 09:21:28;;;;;;;27.30;25.20;;;15.70;77.40;;;;;;5028637;28;20037;-74
2022/09/27 09:24:27;;;;;;;29.33;26.63;;;15.80;76.30;;;;;;5061877;28;20033;-74
2022/09/27 09:26:58;;;;;;;28.85;26.40;;;15.90;76.20;;;;;;5022935;28;20542;-74
2022/09/27 09:29:31;;;;;;;30.40;27.92;;;15.90;75.60;;;;;;5010640;28;20042;-73
2022/09/27 09:32:00;;;;;;;30.85;28.05;;;15.90;74.90;;;;;;5027936;28;20037;-73
2022/09/27 09:34:43;;;;;;;31.92;29.58;;;15.90;75.50;;;;;;5029183;28;20141;-73
2022/09/27 09:37:20;;;;;;;30.38;27.98;;;16.00;75.30;;;;;;5012272;28;20030;-73
2022/09/27 09:40:17;;;;;;;31.35;28.83;;;16.00;75.30;;;;;;5013764;28;20107;-84
2022/09/27 09:42:51;;;;;;;30.95;28.50;;;16.00;75.00;;;;;;5018894;28;20041;-74
2022/09/27 09:45:29;;;;;;;30.65;27.77;;;16.10;74.40;;;;;;5039010;28;20592;-74
2022/09/27 09:48:02;;;;;;;31.25;28.65;;;16.10;73.90;;;;;;4995990;28;20053;-82
2022/09/27 09:50:42;;;;;;;31.42;28.48;;;16.10;73.90;;;;;;5013628;28;20042;-78
2022/09/27 09:53:21;;;;;;;32.08;29.77;;;16.20;76.60;;;;;;5011888;28;20375;-86
2022/09/27 09:55:54;;;;;;;32.63;30.42;;;16.20;74.70;;;;;;4996588;28;20398;-90
2022/09/27 09:58:27;;;;;;;33.10;30.42;;;16.30;74.70;;;;;;5042754;28;20064;-89
2022/09/27 10:01:32;;;;;;;29.67;27.23;;;16.40;76.50;;;;;;5002552;28;20049;-82
2022/09/27 10:03:58;;;;;;;34.25;30.77;;;16.40;72.60;;;;;;5005595;28;20049;-80
2022/09/27 10:06:24;;;;;;;33.20;30.20;;;16.50;74.70;;;;;;5007133;28;20033;-83
2022/09/27 10:08:53;;;;;;;30.27;27.98;;;16.60;76.10;;;;;;5010774;28;20049;-92
2022/09/27 10:11:25;;;;;;;31.55;28.75;;;16.60;74.60;;;;;;4987011;28;20384;-80
2022/09/27 10:13:52;;;;;;;32.78;30.38;;;16.70;75.60;;;;;;5032610;28;20037;-81
2022/09/27 10:16:19;;;;;;;30.00;27.67;;;16.80;73.60;;;;;;5007504;28;20057;-81
2022/09/27 10:18:45;;;;;;;34.03;31.52;;;16.80;72.30;;;;;;5007271;28;20425;-81
2022/09/27 10:21:20;;;;;;;31.52;28.48;;;16.80;74.20;;;;;;5007078;28;20260;-82
2022/09/27 10:24:07;;;;;;;32.05;29.42;;;16.90;75.30;;;;;;5005900;28;20030;-81
2022/09/27 10:26:34;;;;;;;33.10;30.38;;;17.00;72.00;;;;;;5006026;28;20042;-80
2022/09/27 10:29:18;;;;;;;34.83;32.25;;;17.10;73.10;;;;;;5006909;28;20053;-84
2022/09/27 10:31:47;;;;;;;33.17;30.65;;;17.30;71.10;;;;;;5006566;28;20043;-92
2022/09/27 10:34:28;;;;;;;34.30;31.63;;;17.40;71.00;;;;;;5009396;28;20034;-82
2022/09/27 10:37:16;;;;;;;31.60;28.58;;;17.50;69.90;;;;;;4992775;28;20037;-81
2022/09/27 10:39:43;;;;;;;46.15;43.00;;;17.60;69.80;;;;;;5007076;28;20030;-79
2022/09/27 10:42:35;;;;;;;44.42;41.10;;;17.70;67.00;;;;;;4984242;28;20046;-80
2022/09/27 10:45:31;;;;;;;48.78;45.78;;;17.80;68.60;;;;;;5007006;28;20061;-79
2022/09/27 10:48:01;;;;;;;42.58;39.80;;;17.90;67.50;;;;;;4986813;28;20046;-78
2022/09/27 10:50:31;;;;;;;35.67;32.95;;;17.90;66.60;;;;;;5007235;28;20034;-78
2022/09/27 10:53:17;;;;;;;35.65;32.85;;;17.80;66.70;;;;;;5008315;28;20026;-81
2022/09/27 10:55:46;;;;;;;29.75;26.98;;;17.80;67.70;;;;;;4987521;28;20038;-87
2022/09/27 10:58:29;;;;;;;29.98;27.27;;;17.80;66.70;;;;;;4992143;28;20022;-85
2022/09/27 11:01:06;;;;;;;33.45;30.65;;;17.70;67.30;;;;;;4987947;28;20056;-78
2022/09/27 11:03:35;;;;;;;34.25;31.95;;;17.70;67.70;;;;;;5004213;28;20049;-78
2022/09/27 11:06:18;;;;;;;39.92;36.78;;;17.80;67.60;;;;;;5006681;28;20138;-78
2022/09/27 11:08:47;;;;;;;49.35;46.03;;;17.80;66.30;;;;;;5004835;28;20479;-78
2022/09/27 11:11:13;;;;;;;30.75;28.40;;;17.90;65.60;;;;;;5006582;28;20047;-78
2022/09/27 11:13:40;;;;;;;28.05;26.00;;;17.90;66.00;;;;;;5004527;28;20044;-77
2022/09/27 11:16:40;;;;;;;32.97;30.48;;;17.80;64.90;;;;;;5016026;28;20036;-78
2022/09/27 11:19:12;;;;;;;30.88;28.30;;;17.80;65.90;;;;;;5026710;28;20033;-78
2022/09/27 11:22:03;;;;;;;37.50;34.58;;;17.90;65.80;;;;;;5026639;28;20025;-78
2022/09/27 11:24:54;;;;;;;36.40;33.60;;;18.00;63.60;;;;;;5027650;28;20033;-78
2022/09/27 11:27:58;;;;;;;37.63;34.53;;;18.00;63.10;;;;;;5023627;28;20025;-82
2022/09/27 11:30:24;;;;;;;36.47;33.90;;;18.10;63.70;;;;;;5027309;28;20519;-78
2022/09/27 11:33:19;;;;;;;38.15;35.53;;;18.30;63.00;;;;;;5025801;28;20017;-91
2022/09/27 11:36:09;;;;;;;32.25;29.70;;;18.40;61.40;;;;;;5025134;28;20029;-84
2022/09/27 11:39:10;;;;;;;37.20;34.03;;;18.40;60.60;;;;;;5035036;28;20060;-80
2022/09/27 11:41:39;;;;;;;43.40;40.33;;;18.50;60.60;;;;;;5024383;28;20501;-78
2022/09/27 11:44:42;;;;;;;45.42;42.08;;;18.70;61.30;;;;;;5027390;28;20030;-77
2022/09/27 11:47:17;;;;;;;32.97;30.23;;;18.80;61.80;;;;;;5027287;28;20525;-78
2022/09/27 11:49:51;;;;;;;26.10;23.92;;;18.80;59.20;;;;;;5026699;28;20068;-77
2022/09/27 11:52:37;;;;;;;30.13;27.58;;;18.70;59.30;;;;;;5026921;28;20030;-77
2022/09/27 11:55:28;;;;;;;24.33;22.05;;;18.80;59.70;;;;;;5024789;28;20037;-80
2022/09/27 11:58:21;;;;;;;25.98;23.88;;;18.80;59.30;;;;;;5032552;28;20052;-80
2022/09/27 12:00:47;;;;;;;23.55;21.38;;;18.90;57.90;;;;;;5023399;28;20045;-84
2022/09/27 12:03:38;;;;;;;22.33;20.38;;;18.90;57.40;;;;;;5027773;28;20070;-78
2022/09/27 12:06:45;;;;;;;28.40;25.95;;;18.80;57.30;;;;;;5026637;28;20393;-78
2022/09/27 12:09:15;;;;;;;32.75;29.77;;;18.80;57.40;;;;;;5003338;28;20069;-80
2022/09/27 12:11:56;;;;;;;28.17;25.70;;;18.80;57.60;;;;;;4997576;28;20034;-80
2022/09/27 12:14:23;;;;;;;;;;;18.90;58.20;;;;;;5007834;28;20041;-86
2022/09/27 12:16:51;;;;;;;25.70;23.35;;;19.20;56.90;;;;;;4979220;28;19932;-79
2022/09/27 12:19:22;;;;;;;31.15;28.60;;;19.20;56.10;;;;;;4987555;28;20040;-87
2022/09/27 12:21:48;;;;;;;31.27;28.63;;;19.10;56.90;;;;;;5011561;28;20037;-85
2022/09/27 12:24:21;;;;;;;29.42;26.95;;;19.10;58.20;;;;;;4986102;28;20072;-82
2022/09/27 12:26:52;;;;;;;30.35;27.27;;;19.10;57.20;;;;;;4994554;28;20045;-79
2022/09/27 12:29:32;;;;;;;27.92;25.25;;;19.10;57.70;;;;;;4993849;28;20042;-89
2022/09/27 12:32:04;;;;;;;32.17;28.77;;;19.10;57.20;;;;;;4997470;28;20574;-87
2022/09/27 12:34:41;;;;;;;26.25;23.52;;;19.10;57.30;;;;;;4974149;28;20058;-78
2022/09/27 12:37:12;;;;;;;27.70;24.77;;;19.10;55.50;;;;;;4975940;28;20038;-81
2022/09/27 12:39:47;;;;;;;28.33;25.73;;;19.10;55.30;;;;;;4966741;28;20042;-81
2022/09/27 12:42:24;;;;;;;29.70;25.33;;;19.10;55.90;;;;;;4994120;28;20034;-81
2022/09/27 12:44:51;;;;;;;26.90;24.17;;;18.90;55.50;;;;;;4975293;28;20058;-81
2022/09/27 12:47:23;;;;;;;27.98;25.65;;;18.90;55.70;;;;;;5047584;28;20048;-77
2022/09/27 12:50:02;;;;;;;28.13;25.40;;;18.80;56.30;;;;;;5024789;28;20418;-77
2022/09/27 12:52:30;;;;;;;27.98;25.50;;;18.80;56.00;;;;;;5030550;28;20035;-78
2022/09/27 12:55:25;;;;;;;30.40;27.27;;;18.80;56.50;;;;;;5028560;28;20493;-83
2022/09/27 12:58:17;;;;;;;29.52;26.88;;;18.90;57.20;;;;;;5028269;28;20531;-88
2022/09/27 13:01:06;;;;;;;;;;;19.00;56.50;;;;;;5049931;28;20041;-78